Latest Coastal Weather Observations for Alva Beach

IDQ60701

Issued at 7:51 pm EST Wednesday 4 May 2016 (issued every 10 minutes, with the page automatically refreshed every 10 minutes)

About coastal observations | Map of coastal stations | Coastal observations for QLD | Marine services | Other Formats
Station Details ID: 033295 Name: ALVA BEACH Lat: -19.46 Lon: 147.48 Height: 7.5 m
Data from the previous 72 hours. | See also: Recent months at Alva Beach
Date/Time
EST
Temp

°C
Wind Pressure Rain
since 9am
mm
Weather Cloud Vis
km
Sea
Height
m
Swell
Dir
 
Speed
knots
Gust
knots
hPa Trend Height
m
Period
s
Dir
04/07:30pm 26.7 E 7 10 1015.2 - 0.0 - - - - - - -
04/07:00pm 26.7 E 6 8 1014.8 - 0.0 - - - - - - -
04/06:30pm 26.7 E 6 9 1014.3 - 0.0 - - - - - - -
04/06:00pm 26.7 NE 7 8 1013.7 - 0.0 - - - - - - -
04/05:30pm 26.8 NE 7 9 1013.2 - 0.0 - - - - - - -
04/05:00pm 26.9 NNE 8 11 1012.9 - 0.0 - - - - - - -
04/04:30pm 27.2 NNE 10 11 1012.4 - 0.0 - - - - - - -
04/04:00pm 27.4 NNE 10 12 1012.1 - 0.0 - - - - - - -
04/03:30pm 27.9 NNE 11 12 1011.9 - 0.0 - - - - - - -
04/03:00pm 28.1 NNE 11 13 1011.9 - 0.0 - - - - - - -
04/02:30pm 28.1 NE 11 12 1012.1 - 0.0 - - - - - - -
04/02:00pm 28.0 NE 9 11 1012.4 - 0.0 - - - - - - -
04/01:30pm 28.4 NE 8 10 1012.8 - 0.0 - - - - - - -
04/01:00pm 28.6 ENE 9 10 1013.3 - 0.0 - - - - - - -
04/12:30pm 28.2 NE 9 11 1013.7 - 0.0 - - - - - - -
04/12:00pm 28.7 ENE 8 10 1014.0 - 0.0 - - - - - - -
04/11:30am 28.2 ENE 8 10 1014.5 - 0.0 - - - - - - -
04/11:00am 28.4 ENE 7 9 1014.7 - 0.0 - - - - - - -
04/10:30am 27.8 E 6 8 1015.2 - 0.0 - - - - - - -
04/10:00am 27.5 E 5 8 1015.4 - 0.0 - - - - - - -
04/09:30am 27.6 E 5 6 1015.7 - 0.0 - - - - - - -
04/09:00am 27.4 E 4 5 1015.5 - 0.0 - - - - - - -
04/08:30am 26.7 E 3 4 1015.6 - 0.0 - - - - - - -
04/08:00am 24.8 CALM 0 0 1015.3 - 0.0 - - - - - - -
04/07:30am 23.4 W 3 4 1015.2 - 0.0 - - - - - - -
04/07:00am 23.0 CALM 0 0 1014.9 - 0.0 - - - - - - -
04/06:30am 22.4 WSW 3 4 1014.6 - 0.0 - - - - - - -
04/06:00am 22.6 SW 1 4 1014.3 - 0.0 - - - - - - -
04/05:30am 22.8 SW 3 5 1014.1 - 0.0 - - - - - - -
04/05:00am 22.8 SSW 3 4 1014.0 - 0.0 - - - - - - -
04/04:30am 22.9 SSW 4 5 1013.9 - 0.0 - - - - - - -
04/04:00am 22.9 SSW 4 5 1013.6 - 0.0 - - - - - - -
04/03:30am 23.2 SSW 4 5 1013.5 - 0.0 - - - - - - -
04/03:00am 23.7 CALM 0 0 1013.3 - 0.0 - - - - - - -
04/02:30am 24.9 NNE 3 4 1013.3 - 0.0 - - - - - - -
04/02:00am 25.2 NE 3 5 1013.5 - 0.0 - - - - - - -
04/01:30am 25.7 NE 6 8 1013.5 - 0.0 - - - - - - -
04/01:00am 25.8 NE 6 8 1013.7 - 0.0 - - - - - - -
04/12:30am 26.0 NE 7 9 1013.9 - 0.0 - - - - - - -
04/12:00am 26.0 NE 7 9 1014.0 - 0.0 - - - - - - -
 
Date/Time
EST
Temp

°C
Wind Pressure Rain
since 9am
mm
Weather Cloud Vis
km
Sea
Height
m
Swell
Dir
 
Speed
knots
Gust
knots
hPa Trend Height
m
Period
s
Dir
03/11:30pm 26.0 ENE 8 10 1014.2 - 0.0 - - - - - - -
03/11:00pm 26.2 NE 8 9 1014.3 - 0.0 - - - - - - -
03/10:30pm 26.2 NE 7 10 1014.5 - 0.0 - - - - - - -
03/10:00pm 26.3 NE 9 10 1014.4 - 0.0 - - - - - - -
03/09:30pm 26.4 NE 10 12 1014.1 - 0.0 - - - - - - -
03/09:00pm 26.5 NE 10 11 1014.4 - 0.0 - - - - - - -
03/08:30pm 26.5 NE 9 11 1014.2 - 0.0 - - - - - - -
03/08:00pm 26.5 NE 9 10 1014.0 - 0.0 - - - - - - -
03/07:30pm 26.4 NE 8 10 1013.6 - 0.0 - - - - - - -
03/07:00pm 26.4 NNE 8 9 1013.3 - 0.0 - - - - - - -
03/06:30pm 26.5 NNE 8 9 1012.9 - 0.0 - - - - - - -
03/06:00pm 26.4 NNE 8 9 1012.6 - 0.0 - - - - - - -
03/05:30pm 26.7 NNE 9 10 1012.3 - 0.0 - - - - - - -
03/05:00pm 26.8 NNE 9 11 1011.9 - 0.0 - - - - - - -
03/04:30pm 27.4 NE 8 10 1011.6 - 0.0 - - - - - - -
03/04:00pm 27.5 NE 9 11 1011.3 - 0.0 - - - - - - -
03/03:30pm 28.1 NE 9 10 1011.3 - 0.0 - - - - - - -
03/03:00pm 28.0 NE 9 10 1011.3 - 0.0 - - - - - - -
03/02:30pm 28.4 NE 8 10 1011.5 - 0.0 - - - - - - -
03/02:00pm 28.5 NE 9 11 1011.6 - 0.0 - - - - - - -
03/01:30pm 28.6 NE 9 11 1012.1 - 0.0 - - - - - - -
03/01:00pm 28.8 ENE 8 10 1012.5 - 0.0 - - - - - - -
03/12:30pm 28.6 ENE 8 10 1013.0 - 0.0 - - - - - - -
03/12:00pm 28.6 ENE 8 10 1013.4 - 0.0 - - - - - - -
03/11:30am 28.8 ENE 7 9 1013.9 - 0.0 - - - - - - -
03/11:00am 28.8 NE 6 8 1014.0 - 0.0 - - - - - - -
03/10:30am 28.7 NE 5 7 1014.5 - 0.0 - - - - - - -
03/10:00am 28.5 ENE 5 7 1015.0 - 0.0 - - - - - - -
03/09:30am 28.1 E 4 6 1015.0 - 0.0 - - - - - - -
03/09:00am 27.6 E 4 5 1014.8 - 0.0 - - - - - - -
03/08:30am 27.3 ESE 2 5 1014.7 - 0.0 - - - - - - -
03/08:00am 26.4 CALM 0 0 1014.5 - 0.0 - - - - - - -
03/07:30am 24.2 SSW 3 5 1014.5 - 0.0 - - - - - - -
03/07:00am 23.1 SW 3 5 1014.3 - 0.0 - - - - - - -
03/06:30am 22.9 SSW 4 5 1013.9 - 0.0 - - - - - - -
03/06:00am 23.1 S 3 4 1013.6 - 0.0 - - - - - - -
03/05:30am 23.9 CALM 0 3 1013.3 - 0.0 - - - - - - -
03/05:00am 25.6 NE 5 6 1013.0 - 0.0 - - - - - - -
03/04:30am 25.5 NE 6 7 1012.9 - 0.0 - - - - - - -
03/04:00am 25.5 NE 5 7 1012.9 - 0.0 - - - - - - -
03/03:30am 25.5 ENE 6 7 1013.1 - 0.0 - - - - - - -
03/03:00am 25.7 NE 6 7 1013.2 - 0.0 - - - - - - -
03/02:30am 25.6 ENE 5 7 1013.4 - 0.0 - - - - - - -
03/02:00am 25.9 NE 6 7 1013.5 - 0.0 - - - - - - -
03/01:30am 25.8 NE 7 9 1013.6 - 0.0 - - - - - - -
03/01:00am 25.8 ENE 7 9 1014.1 - 0.0 - - - - - - -
03/12:30am 25.9 NE 7 8 1014.2 - 0.0 - - - - - - -
03/12:00am 25.9 NE 6 7 1014.6 - 0.0 - - - - - - -
 
Date/Time
EST
Temp

°C
Wind Pressure Rain
since 9am
mm
Weather Cloud Vis
km
Sea
Height
m
Swell
Dir
 
Speed
knots
Gust
knots
hPa Trend Height
m
Period
s
Dir
02/11:30pm 26.0 ENE 7 9 1014.8 - 0.0 - - - - - - -
02/11:00pm 26.2 ENE 7 8 1014.9 - 0.0 - - - - - - -
02/10:30pm 26.2 ENE 7 8 1015.1 - 0.0 - - - - - - -
02/10:00pm 26.3 ENE 8 10 1015.1 - 0.0 - - - - - - -
02/09:30pm 26.4 ENE 9 10 1015.1 - 0.0 - - - - - - -
02/09:00pm 26.5 ENE 9 11 1015.1 - 0.0 - - - - - - -
02/08:30pm 26.6 ENE 8 10 1015.1 - 0.0 - - - - - - -
02/08:00pm 26.6 NE 8 9 1015.0 - 0.0 - - - - - - -
02/07:30pm 26.6 NE 9 10 1014.4 - 0.0 - - - - - - -
02/07:00pm 26.8 NE 9 10 1014.0 - 0.0 - - - - - - -
02/06:30pm 27.0 NE 10 12 1013.5 - 0.0 - - - - - - -
02/06:00pm 27.0 NE 9 11 1013.3 - 0.0 - - - - - - -
02/05:30pm 27.1 NE 10 12 1013.0 - 0.0 - - - - - - -
02/05:00pm 27.2 NE 10 12 1012.7 - 0.0 - - - - - - -
02/04:30pm 27.4 NE 9 11 1012.6 - 0.0 - - - - - - -
02/04:00pm 27.9 ENE 9 11 1012.4 - 0.0 - - - - - - -
02/03:30pm 28.3 ENE 8 9 1012.4 - 0.0 - - - - - - -
02/03:00pm 28.2 ENE 8 10 1012.4 - 0.0 - - - - - - -
02/02:30pm 28.4 ENE 7 10 1012.5 - 0.0 - - - - - - -
02/02:00pm 28.1 ENE 9 11 1012.7 - 0.0 - - - - - - -
02/01:30pm 28.3 ENE 8 10 1013.1 - 0.0 - - - - - - -
02/01:00pm 28.0 E 7 9 1013.5 - 0.0 - - - - - - -
02/12:30pm 28.3 ENE 8 11 1013.7 - 0.0 - - - - - - -
02/12:00pm 27.8 E 8 10 1014.3 - 0.0 - - - - - - -
02/11:30am 27.0 E 8 10 1014.7 - 0.0 - - - - - - -
02/11:00am 28.1 E 6 8 1015.1 - 0.0 - - - - - - -
02/10:30am 27.9 ENE 6 8 1015.4 - 0.0 - - - - - - -
02/10:00am 28.7 ENE 6 7 1015.8 - 0.0 - - - - - - -
02/09:30am 28.6 ENE 6 7 1016.0 - 0.0 - - - - - - -
02/09:00am 28.1 ENE 5 7 1015.7 - 0.0 - - - - - - -
02/08:30am 28.0 ENE 6 7 1015.6 - 0.0 - - - - - - -
02/08:00am 25.6 CALM 0 3 1015.3 - 0.0 - - - - - - -
02/07:30am 26.3 CALM 0 4 1015.0 - 0.0 - - - - - - -
02/07:00am 25.3 E 3 6 1014.8 - 0.0 - - - - - - -
02/06:30am 25.8 ENE 6 9 1014.4 - 0.0 - - - - - - -
02/06:00am 25.8 ENE 6 8 1014.2 - 0.0 - - - - - - -
02/05:30am 26.0 ENE 7 8 1014.0 - 0.0 - - - - - - -
02/05:00am 25.7 ENE 6 7 1013.8 - 0.0 - - - - - - -
02/04:30am 25.8 ENE 5 7 1013.7 - 0.0 - - - - - - -
02/04:00am 25.8 ENE 6 7 1013.6 - 0.0 - - - - - - -
02/03:30am 25.9 E 5 7 1013.6 - 0.0 - - - - - - -
02/03:00am 25.8 ENE 6 8 1013.6 - 0.0 - - - - - - -
02/02:30am 25.8 E 5 7 1013.8 - 0.0 - - - - - - -
02/02:00am 26.0 E 6 8 1013.9 - 0.0 - - - - - - -
02/01:30am 26.0 E 7 10 1014.2 - 0.0 - - - - - - -
02/01:00am 26.2 E 7 10 1014.7 - 0.0 - - - - - - -
02/12:30am 26.2 E 7 9 1015.1 - 0.0 - - - - - - -
02/12:00am 26.2 ENE 7 10 1015.4 - 0.0 - - - - - - -
 
Date/Time
EST
Temp

°C
Wind Pressure Rain
since 9am
mm
Weather Cloud Vis
km
Sea
Height
m
Swell
Dir
 
Speed
knots
Gust
knots
hPa Trend Height
m
Period
s
Dir
01/11:30pm 26.2 ENE 7 10 1015.6 - 0.0 - - - - - - -
01/11:00pm 26.3 ENE 7 10 1015.7 - 0.0 - - - - - - -
01/10:30pm 26.3 E 7 10 1015.9 - 0.0 - - - - - - -
01/10:00pm 26.3 ENE 9 11 1016.0 - 0.0 - - - - - - -
01/09:30pm 26.5 ENE 10 11 1016.2 - 0.0 - - - - - - -
01/09:00pm 26.4 ENE 8 11 1016.2 - 0.0 - - - - - - -
01/08:30pm 26.5 ENE 9 12 1016.1 - 0.0 - - - - - - -
01/08:00pm 26.5 ENE 10 12 1015.8 - 0.0 - - - - - - -

Other Formats:

Comma delimited format used in spreadsheet applications
http://www.bom.gov.au/fwo/IDQ60701/IDQ60701.95296.axf

JavaScript Object Notation format (JSON) in row-major order
http://www.bom.gov.au/fwo/IDQ60701/IDQ60701.95296.json